ADDS METAR Data INFO
IDs: Format: Raw Decoded Include TAF

Data at: 0609 UTC 25 Jun 2018

KT20 250555Z AUTO 15006KT 10SM OVC014 27/25 A2993 RMK AO2 T02650246 10330 20262 403490255
KT20 250535Z AUTO 15007KT 10SM OVC014 26/25 A2992 RMK AO2 T02630245
KT20 250515Z AUTO 15009KT 10SM BKN014 26/24 A2992 RMK AO2 T02630243
KT20 250455Z AUTO 15009G15KT 10SM CLR 26/24 A2991 RMK AO2 T02630240
KT20 250435Z AUTO 15009KT 10SM CLR 27/24 A2990 RMK AO2 T02650238
KT20 250415Z AUTO 15011G16KT 10SM CLR 27/24 A2989 RMK AO2 T02690236
KT20 250355Z AUTO 15009G17KT 10SM SCT026 27/24 A2989 RMK AO2 T02700237
KT20 250335Z AUTO 14008G15KT 10SM SCT026 27/24 A2989 RMK AO2 T02730238
KT20 250315Z AUTO 13007KT 10SM CLR 27/24 A2989 RMK AO2 T02740237
KT20 250255Z AUTO 14006KT 10SM CLR 28/24 A2987 RMK AO2 T02770236
KT20 250235Z AUTO 14006KT 10SM CLR 28/24 A2987 RMK AO2 T02810235
KT20 250215Z AUTO 14011G18KT 10SM CLR 29/24 A2987 RMK AO2 T02850235
KT20 250155Z AUTO 15010KT 10SM SCT033 29/23 A2986 RMK AO2 T02890234
KT20 250135Z AUTO 14009KT 10SM SCT033 30/23 A2985 RMK AO2 T02950233
KT20 250115Z AUTO 14011G15KT 10SM SCT038 SCT046 30/23 A2984 RMK AO2 T03020231
KT20 250055Z AUTO 14011G16KT 10SM SCT040 BKN046 31/23 A2984 RMK AO2 T03080231
KT20 250035Z AUTO 14011G16KT 10SM BKN044 32/23 A2984 RMK AO2 T03150228
KT20 250015Z AUTO 16008KT 10SM SCT045 32/23 A2984 RMK AO2 T03190226
KT20 242355Z AUTO 15010KT 10SM BKN045 33/23 A2983 RMK AO2 T03310230 10349 20328
KT20 242335Z AUTO 15010G16KT 10SM CLR 33/22 A2983 RMK AO2 T03300218
KT20 242315Z AUTO 15011KT 10SM CLR 33/22 A2983 RMK AO2 T03320220
KT20 242255Z AUTO 15013G18KT 10SM CLR 34/22 A2983 RMK AO2 T03360224
KT20 242235Z AUTO 16012G17KT 10SM CLR 34/22 A2984 RMK AO2 T03370221
KT20 242215Z AUTO 16013G18KT 10SM CLR 34/23 A2984 RMK AO2 T03410234
KT20 242155Z AUTO 16015G20KT 10SM CLR 34/23 A2984 RMK AO2 T03390232
KT20 242135Z AUTO 16012G20KT 10SM SCT043 34/23 A2985 RMK AO2 T03410233
KT20 242115Z AUTO 15013G18KT 10SM SCT048 SCT055 34/24 A2986 RMK AO2 T03390235
KT20 242055Z AUTO 15014G18KT 10SM SCT048 35/23 A2986 RMK AO2 T03450234
KT20 242035Z AUTO 17013G24KT 10SM SCT048 SCT055 34/23 A2986 RMK AO2 T03360229
KT20 242015Z AUTO 15014KT 10SM SCT048 SCT060 34/23 A2986 RMK AO2 T03380227
KT20 241955Z AUTO 16011KT 10SM SCT045 SCT050 35/24 A2987 RMK AO2 T03460237
KT20 241935Z AUTO 16012G19KT 10SM SCT047 SCT050 35/23 A2987 RMK AO2 T03460233
KT20 241915Z AUTO 15011G16KT 10SM SCT047 35/24 A2987 RMK AO2 T03470235
KT20 241855Z AUTO 14016G22KT 10SM BKN045 BKN050 34/24 A2987 RMK AO2 T03420236
KT20 241835Z AUTO 15011G19KT 10SM BKN043 BKN049 33/23 A2988 RMK AO2 T03320232
KT20 241815Z AUTO 16010G18KT 10SM BKN041 BKN049 33/24 A2988 RMK AO2 T03310237
KT20 241755Z AUTO 15014G18KT 10SM BKN041 BKN049 33/24 A2988 RMK AO2 T03280235 10336 20255
KT20 241735Z AUTO 17012G18KT 10SM BKN039 33/24 A2988 RMK AO2 T03300236
KT20 241715Z AUTO 19010G18KT 10SM SCT037 33/23 A2988 RMK AO2 T03280234
KT20 241655Z AUTO 18010G18KT 10SM CLR 33/24 A2987 RMK AO2 T03250236
KT20 241635Z AUTO 17011G15KT 10SM SCT036 32/23 A2987 RMK AO2 T03210233
KT20 241615Z AUTO 18012G15KT 10SM CLR 32/23 A2987 RMK AO2 T03160233
KT20 241555Z AUTO 19015G20KT 10SM CLR 31/23 A2987 RMK AO2 T03120230
KT20 241535Z AUTO 18013G18KT 10SM CLR 31/23 A2986 RMK AO2 T03070230
KT20 241515Z AUTO 18014G18KT 10SM SCT023 31/23 A2987 RMK AO2 T03050233
KT20 241455Z AUTO 19015G21KT 10SM BKN021 BKN028 29/23 A2987 RMK AO2 T02920231
KT20 241435Z AUTO 20012G18KT 10SM BKN021 BKN029 29/24 A2986 RMK AO2 T02860237
KT20 241415Z AUTO 19015G19KT 10SM BKN019 BKN024 29/24 A2987 RMK AO2 LTG DSNT S T02870240
KT20 241355Z AUTO 19013G20KT 10SM BKN017 BKN024 28/24 A2986 RMK AO2 T02790241
KT20 241335Z AUTO 19010G16KT 10SM SCT017 28/24 A2986 RMK AO2 T02770244
KT20 241315Z AUTO 18012G16KT 10SM CLR 27/24 A2985 RMK AO2 T02660242
KT20 241255Z AUTO 18009G16KT 10SM CLR 27/24 A2985 RMK AO2 T02680243
KT20 241235Z AUTO 17009KT 10SM CLR 27/25 A2985 RMK AO2 T02650245
KT20 241215Z AUTO 18008KT 10SM CLR 26/25 A2985 RMK AO2 T02600245
KT20 241155Z AUTO 17008KT 10SM CLR 26/24 A2986 RMK AO2 T02550243 10270 20255
KT20 241135Z AUTO 17007KT 10SM SCT026 SCT033 26/24 A2986 RMK AO2 T02550241
KT20 241115Z AUTO 18005KT 10SM BKN028 BKN033 26/24 A2987 RMK AO2 T02580242
KT20 241055Z AUTO 17006KT 10SM SCT029 26/24 A2987 RMK AO2 T02570240
KT20 241035Z AUTO 19005KT 10SM CLR 26/24 A2987 RMK AO2 T02600240
KT20 241015Z AUTO 17009G15KT 10SM SCT020 SCT026 26/24 A2986 RMK AO2 T02600244
KT20 240955Z AUTO 16006KT 10SM SCT020 26/25 A2986 RMK AO2 T02600246
KT20 240935Z AUTO 16008KT 10SM CLR 26/25 A2985 RMK AO2 T02600248
KT20 240915Z AUTO 16005KT 10SM SCT018 SCT023 SCT036 26/25 A2987 RMK AO2 T02580250
KT20 240855Z AUTO 15003KT 10SM BKN018 BKN025 OVC038 26/25 A2988 RMK AO2 T02600250
KT20 240835Z AUTO 16003KT 10SM BKN018 OVC024 26/25 A2988 RMK AO2 T02610252
KT20 240815Z AUTO 17003KT 10SM BKN018 OVC029 26/25 A2988 RMK AO2 T02600251
KT20 240755Z AUTO 15007KT 10SM SCT018 BKN025 BKN029 26/25 A2986 RMK AO2 T02610251
KT20 240735Z AUTO 16005KT 10SM SCT014 BKN022 26/25 A2987 RMK AO2 T02630251
KT20 240715Z AUTO 16008KT 10SM BKN016 OVC022 27/25 A2987 RMK AO2 T02660248
KT20 240655Z AUTO 17010KT 10SM BKN016 OVC021 27/25 A2987 RMK AO2 T02700250
KT20 240635Z AUTO 16009KT 10SM OVC021 27/25 A2986 RMK AO2 LTG DSNT N T02660250
KT20 240615Z AUTO 16008KT 10SM BKN022 27/25 A2987 RMK AO2 T02650250
KT20 240555Z AUTO 16006KT 10SM BKN024 27/25 A2987 RMK AO2 T02650247 10324 20265 403510244
KT20 240535Z AUTO 17007KT 10SM BKN019 OVC024 27/25 A2986 RMK AO2 LTG DSNT N T02660247
KT20 240515Z AUTO 17006KT 10SM OVC017 27/25 A2986 RMK AO2 T02670247
KT20 240455Z AUTO 17007KT 10SM OVC017 27/25 A2985 RMK AO2 T02700246
KT20 240435Z AUTO 16007KT 10SM OVC017 27/25 A2984 RMK AO2 T02700246
KT20 240415Z AUTO 16008G16KT 10SM BKN017 27/25 A2983 RMK AO2 T02710245
KT20 240355Z AUTO 17013G16KT 10SM SCT017 SCT024 27/24 A2981 RMK AO2 T02720244
KT20 240335Z AUTO 16010G17KT 10SM SCT019 BKN026 28/25 A2981 RMK AO2 T02750245
KT20 240315Z AUTO 16009KT 10SM BKN019 OVC030 28/25 A2980 RMK AO2 T02770246
KT20 240255Z AUTO 15007KT 10SM SCT019 BKN030 28/25 A2979 RMK AO2 T02800245
KT20 240235Z AUTO 15008G15KT 10SM SCT030 28/24 A2979 RMK AO2 T02800243
KT20 240215Z AUTO 16010G20KT 10SM SCT023 28/24 A2978 RMK AO2 T02840243
KT20 240155Z AUTO 15010G14KT 10SM BKN025 BKN030 29/25 A2977 RMK AO2 T02870245
KT20 240135Z AUTO 16009G16KT 10SM BKN029 29/24 A2977 RMK AO2 T02900242
KT20 240115Z AUTO 15013G20KT 10SM BKN029 30/24 A2977 RMK AO2 T03000241
KT20 240055Z AUTO 16009KT 10SM SCT033 31/24 A2977 RMK AO2 T03050238
KT20 240035Z AUTO 15012G18KT 10SM SCT035 31/24 A2977 RMK AO2 T03100240
KT20 240015Z AUTO 14012G18KT 10SM BKN035 32/24 A2977 RMK AO2 T03190240
KT20 232355Z AUTO 15011G19KT 10SM SCT037 33/24 A2977 RMK AO2 T03260238 10351 20326
KT20 232335Z AUTO 16008G16KT 10SM CLR 33/24 A2976 RMK AO2 T03320237
KT20 232315Z AUTO 16015G21KT 10SM CLR 33/23 A2975 RMK AO2 T03320233
KT20 232255Z AUTO 16012G20KT 10SM CLR 34/23 A2975 RMK AO2 T03370231
KT20 232235Z AUTO 16012G19KT 10SM CLR 34/23 A2976 RMK AO2 T03400230
KT20 232215Z AUTO 15012G16KT 10SM CLR 35/23 A2977 RMK AO2 T03450232
KT20 232155Z AUTO 14013G20KT 10SM CLR 34/23 A2977 RMK AO2 T03430229
KT20 232135Z AUTO 16011G20KT 10SM CLR 35/23 A2978 RMK AO2 T03450232
KT20 232115Z AUTO 16012G19KT 10SM CLR 35/23 A2978 RMK AO2 T03480233
KT20 232055Z AUTO 14014G17KT 10SM SCT047 35/23 A2978 RMK AO2 T03450230
KT20 232035Z AUTO 16014G18KT 10SM SCT047 35/23 A2979 RMK AO2 T03460233
KT20 232015Z AUTO 14009G15KT 110V170 10SM SCT047 35/24 A2979 RMK AO2 T03500237
KT20 231955Z AUTO 16012G18KT 10SM SCT047 35/24 A2980 RMK AO2 T03450236
KT20 231935Z AUTO 15009G17KT 10SM SCT047 34/23 A2981 RMK AO2 T03390232
KT20 231915Z AUTO 17012G16KT 10SM SCT047 34/23 A2981 RMK AO2 T03420232
KT20 231855Z AUTO 15011G17KT 10SM SCT045 34/23 A2981 RMK AO2 T03430230
KT20 231835Z AUTO 17009G14KT 10SM SCT045 34/23 A2982 RMK AO2 T03420234
KT20 231815Z AUTO 16008G15KT 10SM CLR 34/23 A2983 RMK AO2 T03400233